createdAt,value
2022-10-26T00:01:25.369Z,25.85
2022-10-26T00:03:26.917Z,19.75
2022-10-26T00:05:28.460Z,15.57
2022-10-26T00:07:30.548Z,9.68
2022-10-26T00:09:32.217Z,13.45
2022-10-26T00:11:33.890Z,21.25
2022-10-26T00:13:35.949Z,21.80
2022-10-26T00:15:40.075Z,16.80
2022-10-26T00:17:41.811Z,13.73
2022-10-26T00:19:43.274Z,19.20
2022-10-26T00:21:44.919Z,19.10
2022-10-26T00:23:46.380Z,13.25
2022-10-26T00:25:54.379Z,13.68
2022-10-26T00:27:55.892Z,18.00
2022-10-26T00:29:57.311Z,16.20
2022-10-26T00:31:58.757Z,16.02
2022-10-26T00:34:00.402Z,12.85
2022-10-26T00:36:01.883Z,13.60
2022-10-26T00:38:03.306Z,15.43
2022-10-26T00:40:04.945Z,11.18
2022-10-26T00:42:06.422Z,13.93
2022-10-26T00:44:27.161Z,14.45
2022-10-26T00:46:36.460Z,19.92
2022-10-26T00:48:39.857Z,16.80
2022-10-26T00:50:43.291Z,19.23
2022-10-26T00:52:44.750Z,17.95
2022-10-26T00:54:46.366Z,19.83
2022-10-26T00:56:50.892Z,22.48
2022-10-26T00:58:52.528Z,19.10
2022-10-26T01:00:54.711Z,12.05
2022-10-26T01:02:57.950Z,18.23
2022-10-26T01:04:59.582Z,16.42
2022-10-26T01:07:02.658Z,16.70
2022-10-26T01:09:04.259Z,15.83
2022-10-26T01:11:05.809Z,16.98
2022-10-26T01:13:07.609Z,16.15
2022-10-26T01:15:09.360Z,17.15
2022-10-26T01:17:16.948Z,15.63
2022-10-26T01:19:37.223Z,8.48
2022-10-26T01:21:38.749Z,17.38
2022-10-26T01:23:46.520Z,13.23
2022-10-26T01:25:56.219Z,14.50
2022-10-26T01:27:58.362Z,16.63
2022-10-26T01:30:11.853Z,10.82
2022-10-26T01:32:22.703Z,16.10
2022-10-26T01:34:29.303Z,17.33
2022-10-26T01:36:42.557Z,9.25
2022-10-26T01:38:47.434Z,12.70
2022-10-26T01:41:08.817Z,11.25
2022-10-26T01:43:12.415Z,464.75
2022-10-26T01:45:14.901Z,466.25
2022-10-26T01:47:17.217Z,409.85
2022-10-26T01:49:21.723Z,514.03
2022-10-26T01:51:23.702Z,441.50
2022-10-26T01:53:26.566Z,14.13
2022-10-26T01:55:39.911Z,12.40
2022-10-26T01:57:43.591Z,16.55
2022-10-26T02:02:14.912Z,14.70
2022-10-26T02:06:32.799Z,13.55
2022-10-26T02:08:43.718Z,20.58
2022-10-26T02:11:07.440Z,9.38
2022-10-26T02:13:09.382Z,9.38
2022-10-26T02:15:19.528Z,16.67
2022-10-26T02:17:21.272Z,14.13
2022-10-26T02:19:40.534Z,19.05
2022-10-26T02:21:47.681Z,13.88
2022-10-26T02:23:51.942Z,23.08
2022-10-26T02:25:57.076Z,14.45
2022-10-26T02:28:04.759Z,16.45
2022-10-26T02:30:06.882Z,22.70
2022-10-26T02:32:09.126Z,21.00
2022-10-26T02:34:11.935Z,22.85
2022-10-26T02:36:15.521Z,19.02
2022-10-26T02:38:19.462Z,21.58
2022-10-26T02:40:24.731Z,18.67
2022-10-26T02:42:26.963Z,17.67
2022-10-26T02:44:30.219Z,21.02
2022-10-26T02:46:33.862Z,12.38
2022-10-26T02:50:47.573Z,18.67
2022-10-26T02:53:00.797Z,22.52
2022-10-26T02:55:14.778Z,15.05
2022-10-26T02:57:17.805Z,15.32
2022-10-26T02:59:22.938Z,22.58
2022-10-26T03:01:24.989Z,12.48
2022-10-26T03:03:27.619Z,16.30
2022-10-26T03:05:30.468Z,22.42
2022-10-26T03:07:31.898Z,19.13
2022-10-26T03:09:33.348Z,21.52
2022-10-26T03:11:34.823Z,18.63
2022-10-26T03:13:36.254Z,22.58
2022-10-26T03:15:37.983Z,17.92
2022-10-26T03:17:39.601Z,13.85
2022-10-26T03:19:40.981Z,19.55
2022-10-26T03:21:42.550Z,23.15
2022-10-26T03:23:43.995Z,18.52
2022-10-26T03:25:45.456Z,22.55
2022-10-26T03:27:47.101Z,23.80
2022-10-26T03:29:49.054Z,26.70
2022-10-26T03:31:54.243Z,26.00
2022-10-26T03:33:55.751Z,16.33
2022-10-26T03:35:57.270Z,20.75
2022-10-26T03:37:58.765Z,24.50
2022-10-26T03:40:00.200Z,17.65
2022-10-26T03:42:01.687Z,15.38
2022-10-26T03:44:03.109Z,21.15
2022-10-26T03:46:04.750Z,16.17
2022-10-26T03:48:06.168Z,21.10
2022-10-26T03:50:07.852Z,15.68
2022-10-26T03:52:09.262Z,18.50
2022-10-26T03:54:10.674Z,15.27
2022-10-26T03:56:12.130Z,19.42
2022-10-26T03:58:13.794Z,23.83
2022-10-26T04:00:16.492Z,21.85
2022-10-26T04:02:17.893Z,25.83
2022-10-26T04:04:19.570Z,18.52
2022-10-26T04:06:21.046Z,17.30
2022-10-26T04:08:22.447Z,18.85
2022-10-26T04:10:25.028Z,11.48
2022-10-26T04:12:26.428Z,17.42
2022-10-26T04:14:27.814Z,19.75
2022-10-26T04:16:32.500Z,21.63
2022-10-26T04:18:34.971Z,11.32
2022-10-26T04:20:36.760Z,22.50
2022-10-26T04:22:38.503Z,20.60
2022-10-26T04:24:39.986Z,17.90
2022-10-26T04:26:41.430Z,25.33
2022-10-26T04:28:42.878Z,13.52
2022-10-26T04:30:44.289Z,26.20
2022-10-26T04:32:45.911Z,24.05
2022-10-26T04:34:47.772Z,30.73
2022-10-26T04:36:49.302Z,19.95
2022-10-26T04:38:51.235Z,12.63
2022-10-26T04:40:52.887Z,26.60
2022-10-26T04:42:54.581Z,26.70
2022-10-26T04:44:55.961Z,23.15
2022-10-26T04:46:57.379Z,17.83
2022-10-26T04:48:58.767Z,35.05
2022-10-26T04:51:00.657Z,23.10
2022-10-26T04:53:02.274Z,19.80
2022-10-26T04:55:06.108Z,25.80
2022-10-26T04:57:07.550Z,20.35
2022-10-26T04:59:09.091Z,20.42
2022-10-26T05:01:10.586Z,24.50
2022-10-26T05:03:13.085Z,25.88
2022-10-26T05:05:15.307Z,22.60
2022-10-26T05:07:18.025Z,23.73
2022-10-26T05:09:19.908Z,24.33
2022-10-26T05:11:22.488Z,21.60
2022-10-26T05:15:29.196Z,18.25
2022-10-26T05:17:30.570Z,20.35
2022-10-26T05:19:33.697Z,24.17
2022-10-26T05:21:37.640Z,18.00
2022-10-26T05:23:41.403Z,24.20
2022-10-26T05:25:43.123Z,30.10
2022-10-26T05:27:44.561Z,19.10
2022-10-26T05:29:47.872Z,13.70
2022-10-26T05:31:49.678Z,20.15
2022-10-26T05:33:53.414Z,13.15
2022-10-26T05:35:55.551Z,20.75
2022-10-26T05:37:57.039Z,23.00
2022-10-26T05:39:58.478Z,26.55
2022-10-26T05:42:01.997Z,17.05
2022-10-26T05:44:03.797Z,19.52
2022-10-26T05:46:05.461Z,20.42
2022-10-26T05:48:06.886Z,24.75
2022-10-26T05:50:10.804Z,23.45
2022-10-26T05:52:12.711Z,16.13
2022-10-26T05:54:14.208Z,23.58
2022-10-26T05:56:20.348Z,14.18
2022-10-26T05:58:21.932Z,19.50
2022-10-26T06:00:28.457Z,21.92
2022-10-26T06:02:42.701Z,26.58
2022-10-26T06:04:48.769Z,25.00
2022-10-26T06:06:53.353Z,18.30
2022-10-26T06:08:55.003Z,15.52
2022-10-26T06:10:59.289Z,21.75
2022-10-26T06:13:00.857Z,21.23
2022-10-26T06:15:02.450Z,14.27
2022-10-26T06:17:22.094Z,23.92
2022-10-26T06:19:23.577Z,24.38
2022-10-26T06:21:42.074Z,23.00
2022-10-26T06:23:52.709Z,19.73
2022-10-26T06:25:58.153Z,23.73
2022-10-26T06:28:18.528Z,16.00
2022-10-26T06:30:23.246Z,29.50
2022-10-26T06:32:27.621Z,32.28
2022-10-26T06:34:32.579Z,24.80
2022-10-26T06:36:34.221Z,23.02
2022-10-26T06:38:37.176Z,23.13
2022-10-26T06:40:40.136Z,23.30
2022-10-26T06:42:41.825Z,24.40
2022-10-26T06:44:43.463Z,38.97
2022-10-26T06:47:03.280Z,28.75
2022-10-26T06:49:10.853Z,27.45
2022-10-26T06:51:14.473Z,24.60
2022-10-26T06:53:23.424Z,18.65
2022-10-26T06:55:26.901Z,17.98
2022-10-26T06:57:32.200Z,32.55
2022-10-26T06:59:43.043Z,26.77
2022-10-26T07:01:44.604Z,21.38
2022-10-26T07:03:46.137Z,19.80
2022-10-26T07:05:47.768Z,22.65
2022-10-26T07:07:49.681Z,33.85
2022-10-26T07:09:51.599Z,24.50
2022-10-26T07:11:53.330Z,23.55
2022-10-26T07:13:54.789Z,24.50
2022-10-26T07:15:56.222Z,20.80
2022-10-26T07:17:57.633Z,26.60
2022-10-26T07:19:59.177Z,21.83
2022-10-26T07:22:01.248Z,27.73
2022-10-26T07:24:02.674Z,23.63
2022-10-26T07:26:04.328Z,31.98
2022-10-26T07:28:06.493Z,26.65
2022-10-26T07:30:08.365Z,33.00
2022-10-26T07:32:09.761Z,17.45
2022-10-26T07:34:11.279Z,32.63
2022-10-26T07:36:13.854Z,38.45
2022-10-26T07:38:15.258Z,38.38
2022-10-26T07:40:16.669Z,35.13
2022-10-26T07:42:18.843Z,37.72
2022-10-26T07:44:20.355Z,28.55
2022-10-26T07:46:21.906Z,14.38
2022-10-26T07:48:23.415Z,25.00
2022-10-26T07:50:25.174Z,28.02
2022-10-26T07:52:26.530Z,15.32
2022-10-26T07:54:28.058Z,14.50
2022-10-26T07:56:30.015Z,12.23
2022-10-26T07:58:31.539Z,14.10
2022-10-26T08:00:33.112Z,14.35
2022-10-26T08:02:35.059Z,21.60
2022-10-26T08:04:37.799Z,24.95
2022-10-26T08:06:39.827Z,16.27
2022-10-26T08:08:46.399Z,16.50
2022-10-26T08:10:52.335Z,22.45
2022-10-26T08:12:55.148Z,23.20
2022-10-26T08:14:56.858Z,25.05
2022-10-26T08:16:58.251Z,31.17
2022-10-26T08:18:59.742Z,28.88
2022-10-26T08:21:10.671Z,18.65
2022-10-26T08:23:14.180Z,20.98
2022-10-26T08:25:17.699Z,32.42
2022-10-26T08:27:21.952Z,25.27
2022-10-26T08:29:25.963Z,18.55
2022-10-26T08:31:29.566Z,9.65
2022-10-26T08:33:31.098Z,12.87
2022-10-26T08:35:35.314Z,8.95
2022-10-26T08:37:37.695Z,32.63
2022-10-26T08:39:39.986Z,16.65
2022-10-26T08:41:43.442Z,15.40
2022-10-26T08:43:52.554Z,13.15
2022-10-26T08:45:53.930Z,10.88
2022-10-26T08:48:00.126Z,8.50
2022-10-26T08:50:04.835Z,13.80
2022-10-26T08:52:09.783Z,9.90
2022-10-26T08:54:22.735Z,11.18
2022-10-26T08:56:27.331Z,11.00
2022-10-26T08:58:33.593Z,14.32
2022-10-26T09:00:37.166Z,19.30
2022-10-26T09:04:40.979Z,21.65
2022-10-26T09:07:07.266Z,41.97
2022-10-26T09:09:09.395Z,33.40
2022-10-26T09:11:31.142Z,32.90
2022-10-26T09:13:44.282Z,29.00
2022-10-26T09:15:54.994Z,58.92
2022-10-26T09:17:56.418Z,38.42
2022-10-26T09:20:11.063Z,33.10
2022-10-26T09:22:17.940Z,20.90
2022-10-26T09:24:29.607Z,30.55
2022-10-26T09:26:49.900Z,40.30
2022-10-26T09:28:51.436Z,26.55
2022-10-26T09:30:52.805Z,36.22
2022-10-26T09:32:57.533Z,34.40
2022-10-26T09:35:00.439Z,36.60
2022-10-26T09:37:10.894Z,37.40
2022-10-26T09:39:21.110Z,28.67
2022-10-26T09:41:22.585Z,39.47
2022-10-26T09:43:27.089Z,46.35
2022-10-26T09:45:38.897Z,35.30
2022-10-26T09:47:42.973Z,43.60
2022-10-26T09:49:49.497Z,28.83
2022-10-26T09:51:51.351Z,43.60
2022-10-26T09:53:53.989Z,34.80
2022-10-26T09:56:06.314Z,46.22
2022-10-26T09:58:13.078Z,40.47
2022-10-26T10:00:18.627Z,26.35
2022-10-26T10:02:33.910Z,33.33
2022-10-26T10:04:35.786Z,31.80
2022-10-26T10:06:37.190Z,24.95
2022-10-26T10:08:38.609Z,28.65
2022-10-26T10:10:53.057Z,33.03
2022-10-26T10:12:54.774Z,33.33
2022-10-26T10:14:59.521Z,31.95
2022-10-26T10:17:02.432Z,31.23
2022-10-26T10:19:03.859Z,24.92
2022-10-26T10:21:06.176Z,31.50
2022-10-26T10:23:21.301Z,35.13
2022-10-26T10:25:31.674Z,33.85
2022-10-26T10:27:33.521Z,38.58
2022-10-26T10:29:40.889Z,32.88
2022-10-26T10:31:42.514Z,37.13
2022-10-26T10:33:45.686Z,28.20
2022-10-26T10:35:50.067Z,33.97
2022-10-26T10:37:51.701Z,25.90
2022-10-26T10:39:59.242Z,38.30
2022-10-26T10:42:01.152Z,33.97
2022-10-26T10:44:07.152Z,25.45
2022-10-26T10:46:08.871Z,32.92
2022-10-26T10:48:14.470Z,27.05
2022-10-26T10:50:17.596Z,28.77
2022-10-26T10:52:24.094Z,32.85
2022-10-26T10:54:37.509Z,36.53
2022-10-26T10:56:44.388Z,39.60
2022-10-26T10:58:48.624Z,29.30
2022-10-26T11:00:50.086Z,34.05
2022-10-26T11:03:09.849Z,33.95
2022-10-26T11:05:11.217Z,33.05
2022-10-26T11:07:14.409Z,30.40
2022-10-26T11:09:20.095Z,41.05
2022-10-26T11:11:24.960Z,31.30
2022-10-26T11:13:46.347Z,35.50
2022-10-26T11:15:52.144Z,31.23
2022-10-26T11:18:13.598Z,26.60
2022-10-26T11:20:24.688Z,33.45
2022-10-26T11:22:29.137Z,34.85
2022-10-26T11:24:34.150Z,29.40
2022-10-26T11:26:43.654Z,39.95
2022-10-26T11:28:50.674Z,32.95
2022-10-26T11:33:05.626Z,29.80
2022-10-26T11:35:14.692Z,33.55
2022-10-26T11:37:26.863Z,37.17
2022-10-26T11:39:36.677Z,27.33
2022-10-26T11:41:48.407Z,26.25
2022-10-26T11:43:51.129Z,31.35
2022-10-26T11:46:12.777Z,30.27
2022-10-26T11:48:19.475Z,27.42
2022-10-26T11:50:21.876Z,32.10
2022-10-26T11:52:35.857Z,37.10
2022-10-26T11:54:40.846Z,28.90
2022-10-26T11:56:46.515Z,26.77
2022-10-26T11:58:48.309Z,25.02
2022-10-26T12:00:54.142Z,32.00
2022-10-26T12:02:57.827Z,32.55
2022-10-26T12:05:08.245Z,33.85
2022-10-26T12:07:13.330Z,31.25
2022-10-26T12:09:24.765Z,25.35
2022-10-26T12:12:05.991Z,37.13
2022-10-26T12:14:07.871Z,30.92
2022-10-26T12:16:13.974Z,38.85
2022-10-26T12:18:54.610Z,30.27
2022-10-26T12:21:04.337Z,34.45
2022-10-26T12:23:06.539Z,27.45
2022-10-26T12:25:15.442Z,32.95
2022-10-26T12:27:36.029Z,28.40
2022-10-26T12:29:45.674Z,33.97
2022-10-26T12:31:47.134Z,29.17
2022-10-26T12:33:49.582Z,33.38
2022-10-26T12:35:51.055Z,27.75
2022-10-26T12:37:52.828Z,34.53
2022-10-26T12:39:54.872Z,31.55
2022-10-26T12:41:58.202Z,39.08
2022-10-26T12:44:06.187Z,24.88
2022-10-26T12:46:13.763Z,31.20
2022-10-26T12:48:39.731Z,31.83
2022-10-26T12:50:41.406Z,34.47
2022-10-26T12:52:48.768Z,29.75
2022-10-26T12:55:01.523Z,34.65
2022-10-26T12:57:29.506Z,32.15
2022-10-26T12:59:44.735Z,24.88
2022-10-26T13:01:58.637Z,36.63
2022-10-26T13:04:06.576Z,31.50
2022-10-26T13:06:20.339Z,20.10
2022-10-26T13:08:22.126Z,19.90
2022-10-26T13:10:25.565Z,35.70
2022-10-26T13:12:27.656Z,28.05
2022-10-26T13:14:32.117Z,37.70
2022-10-26T13:16:34.000Z,31.75
2022-10-26T13:18:41.277Z,34.30
2022-10-26T13:21:01.687Z,33.65
2022-10-26T13:23:04.261Z,27.88
2022-10-26T13:25:06.259Z,27.50
2022-10-26T13:27:08.149Z,26.70
2022-10-26T13:29:10.602Z,32.40
2022-10-26T13:31:15.111Z,24.95
2022-10-26T13:33:19.018Z,34.47
2022-10-26T13:37:24.257Z,26.30
2022-10-26T13:39:42.724Z,30.10
2022-10-26T13:41:45.385Z,36.42
2022-10-26T13:43:47.070Z,25.45
2022-10-26T13:45:56.206Z,23.33
2022-10-26T13:47:57.758Z,31.23
2022-10-26T13:50:08.475Z,27.20
2022-10-26T13:52:24.016Z,27.50
2022-10-26T13:54:44.152Z,31.08
2022-10-26T13:56:57.119Z,32.90
2022-10-26T13:59:01.955Z,35.92
2022-10-26T14:01:09.990Z,25.45
2022-10-26T14:03:18.282Z,28.52
2022-10-26T14:05:19.705Z,28.83
2022-10-26T14:07:24.231Z,21.98
2022-10-26T14:09:25.946Z,30.42
2022-10-26T14:11:32.686Z,26.38
2022-10-26T14:13:34.432Z,20.67
2022-10-26T14:15:37.111Z,30.48
2022-10-26T14:17:39.339Z,31.90
2022-10-26T14:19:51.094Z,26.92
2022-10-26T14:21:59.412Z,30.98
2022-10-26T14:24:07.990Z,21.42
2022-10-26T14:26:20.407Z,29.48
2022-10-26T14:28:24.075Z,32.38
2022-10-26T14:30:25.923Z,28.77
2022-10-26T14:32:28.919Z,28.27
2022-10-26T14:34:33.103Z,34.57
2022-10-26T14:36:39.253Z,32.83
2022-10-26T14:38:47.295Z,16.88
2022-10-26T14:40:49.652Z,29.08
2022-10-26T14:42:52.986Z,32.10
2022-10-26T14:44:57.173Z,25.92
2022-10-26T14:46:59.217Z,28.17
2022-10-26T14:49:02.128Z,31.65
2022-10-26T14:51:06.703Z,32.83
2022-10-26T14:53:16.483Z,29.15
2022-10-26T14:55:20.523Z,27.17
2022-10-26T14:57:49.230Z,27.70
2022-10-26T15:00:01.134Z,32.22
2022-10-26T15:02:21.540Z,32.50
2022-10-26T15:04:27.978Z,28.33
2022-10-26T15:06:30.579Z,30.25
2022-10-26T15:08:55.917Z,26.13
2022-10-26T15:11:07.963Z,22.23
2022-10-26T15:13:09.867Z,33.55
2022-10-26T15:15:16.396Z,22.75
2022-10-26T15:17:21.062Z,24.63
2022-10-26T15:19:24.204Z,32.78
2022-10-26T15:21:35.687Z,24.63
2022-10-26T15:23:38.705Z,27.00
2022-10-26T15:25:41.727Z,23.55
2022-10-26T15:27:43.990Z,30.05
2022-10-26T15:29:46.591Z,31.33
2022-10-26T15:31:59.640Z,34.07
2022-10-26T15:34:01.910Z,27.00
2022-10-26T15:36:17.019Z,30.30
2022-10-26T15:38:18.542Z,25.15
2022-10-26T15:40:20.875Z,22.55
2022-10-26T15:42:22.347Z,33.92
2022-10-26T15:44:23.889Z,28.23
2022-10-26T15:46:29.172Z,33.78
2022-10-26T15:48:31.689Z,31.92
2022-10-26T15:50:35.568Z,30.42
2022-10-26T15:52:39.387Z,24.23
2022-10-26T15:54:40.899Z,28.42
2022-10-26T15:56:43.836Z,25.92
2022-10-26T15:58:45.912Z,22.60
2022-10-26T16:00:47.374Z,34.50
2022-10-26T16:02:48.992Z,31.52
2022-10-26T16:04:50.388Z,32.22
2022-10-26T16:06:51.870Z,25.95
2022-10-26T16:08:53.963Z,22.05
2022-10-26T16:10:55.453Z,28.50
2022-10-26T16:12:56.907Z,41.22
2022-10-26T16:15:05.602Z,32.45
2022-10-26T16:17:07.838Z,27.10
2022-10-26T16:21:31.193Z,36.85
2022-10-26T16:23:32.655Z,27.05
2022-10-26T16:25:35.493Z,37.42
2022-10-26T16:27:37.024Z,32.55
2022-10-26T16:29:38.726Z,33.13
2022-10-26T16:31:40.238Z,29.70
2022-10-26T16:33:41.781Z,31.77
2022-10-26T16:35:43.503Z,35.75
2022-10-26T16:37:45.561Z,28.75
2022-10-26T16:39:46.997Z,28.30
2022-10-26T16:41:49.548Z,32.80
2022-10-26T16:43:51.474Z,28.20
2022-10-26T16:45:52.872Z,30.58
2022-10-26T16:47:54.402Z,32.40
2022-10-26T16:49:55.791Z,30.52
2022-10-26T16:51:57.652Z,33.40
2022-10-26T16:53:59.121Z,26.08
2022-10-26T16:56:08.452Z,37.97
2022-10-26T16:58:10.168Z,31.50
2022-10-26T17:00:12.100Z,35.70
2022-10-26T17:02:13.981Z,37.53
2022-10-26T17:04:16.036Z,27.30
2022-10-26T17:06:17.757Z,32.22
2022-10-26T17:08:19.227Z,25.92
2022-10-26T17:10:23.199Z,32.92
2022-10-26T17:14:32.707Z,42.38
2022-10-26T17:16:34.999Z,33.17
2022-10-26T17:18:36.425Z,30.35
2022-10-26T17:20:38.584Z,31.85
2022-10-26T17:22:40.491Z,35.22
2022-10-26T17:24:41.886Z,32.60
2022-10-26T17:26:44.923Z,35.08
2022-10-26T17:28:52.432Z,38.08
2022-10-26T17:31:05.440Z,30.50
2022-10-26T17:33:09.446Z,37.00
2022-10-26T17:37:13.312Z,37.95
2022-10-26T17:39:16.289Z,41.30
2022-10-26T17:41:19.661Z,29.73
2022-10-26T17:43:21.522Z,33.42
2022-10-26T17:45:23.346Z,32.38
2022-10-26T17:47:24.811Z,31.98
2022-10-26T17:49:27.963Z,42.92
2022-10-26T17:51:32.821Z,34.50
2022-10-26T17:53:35.370Z,43.55
2022-10-26T17:55:41.347Z,38.90
2022-10-26T17:57:43.303Z,33.83
2022-10-26T17:59:46.509Z,33.92
2022-10-26T18:01:48.353Z,27.35
2022-10-26T18:03:49.877Z,38.25
2022-10-26T18:05:51.529Z,42.47
2022-10-26T18:07:53.180Z,37.15
2022-10-26T18:09:54.877Z,35.70
2022-10-26T18:11:56.616Z,46.67
2022-10-26T18:13:59.589Z,34.53
2022-10-26T18:16:10.175Z,38.22
2022-10-26T18:18:13.931Z,32.58
2022-10-26T18:20:15.760Z,40.88
2022-10-26T18:22:17.171Z,33.10
2022-10-26T18:24:20.341Z,31.80
2022-10-26T18:26:23.251Z,35.78
2022-10-26T18:28:26.730Z,27.52
2022-10-26T18:30:28.616Z,29.17
2022-10-26T18:32:30.176Z,38.85
2022-10-26T18:34:31.757Z,24.15
2022-10-26T18:36:33.529Z,28.38
2022-10-26T18:38:35.178Z,30.38
2022-10-26T18:40:36.569Z,21.08
2022-10-26T18:42:38.661Z,21.90
2022-10-26T18:44:40.033Z,23.42
2022-10-26T18:46:47.740Z,24.55
2022-10-26T18:48:50.634Z,31.45
2022-10-26T18:50:52.145Z,24.92
2022-10-26T18:52:54.772Z,23.15
2022-10-26T18:54:56.986Z,21.48
2022-10-26T18:56:58.578Z,23.13
2022-10-26T18:59:00.257Z,16.65
2022-10-26T19:01:08.991Z,27.02
2022-10-26T19:03:10.981Z,19.40
2022-10-26T19:05:12.527Z,17.40
2022-10-26T19:07:14.300Z,14.00
2022-10-26T19:09:16.574Z,21.30
2022-10-26T19:11:18.858Z,27.25
2022-10-26T19:13:20.252Z,120.13
2022-10-26T19:15:21.940Z,189.00
2022-10-26T19:17:23.622Z,219.20
2022-10-26T19:19:25.399Z,244.27
2022-10-26T19:21:28.698Z,250.18
2022-10-26T19:23:37.717Z,232.82
2022-10-26T19:25:39.118Z,221.35
2022-10-26T19:27:40.628Z,187.48
2022-10-26T19:29:42.133Z,138.90
2022-10-26T19:31:47.419Z,122.50
2022-10-26T19:33:48.891Z,94.70
2022-10-26T19:35:51.729Z,78.85
2022-10-26T19:37:53.434Z,71.43
2022-10-26T19:39:54.872Z,73.80
2022-10-26T19:41:56.774Z,69.32
2022-10-26T19:46:06.881Z,58.30
2022-10-26T19:48:08.291Z,62.38
2022-10-26T19:50:09.861Z,75.60
2022-10-26T19:52:11.473Z,61.13
2022-10-26T19:54:12.959Z,74.55
2022-10-26T19:56:14.588Z,63.38
2022-10-26T19:58:16.020Z,48.63
2022-10-26T20:00:18.116Z,46.78
2022-10-26T20:02:19.572Z,33.22
2022-10-26T20:04:21.147Z,39.17
2022-10-26T20:06:22.755Z,38.08
2022-10-26T20:08:25.565Z,37.47
2022-10-26T20:10:27.195Z,32.53
2022-10-26T20:12:28.900Z,29.38
2022-10-26T20:14:30.362Z,28.52
2022-10-26T20:16:33.545Z,24.52
2022-10-26T20:18:35.225Z,65.82
2022-10-26T20:20:37.970Z,73.93
2022-10-26T20:22:39.362Z,66.60
2022-10-26T20:24:40.851Z,63.65
2022-10-26T20:26:42.322Z,73.55
2022-10-26T20:28:44.746Z,59.53
2022-10-26T20:30:48.443Z,57.22
2022-10-26T20:34:59.214Z,51.70
2022-10-26T20:37:01.136Z,55.60
2022-10-26T20:39:03.658Z,56.47
2022-10-26T20:41:10.018Z,53.15
2022-10-26T20:43:16.520Z,48.17
2022-10-26T20:45:31.172Z,55.03
2022-10-26T20:49:35.890Z,62.20
2022-10-26T20:51:56.661Z,116.45
2022-10-26T20:54:08.035Z,44.70
2022-10-26T20:56:22.292Z,59.92
2022-10-26T20:58:23.734Z,56.53
2022-10-26T21:00:26.734Z,51.47
2022-10-26T21:02:29.292Z,78.28
2022-10-26T21:04:31.591Z,88.80
2022-10-26T21:06:40.034Z,100.70
2022-10-26T21:08:43.304Z,102.97
2022-10-26T21:10:45.192Z,148.32
2022-10-26T21:12:48.309Z,152.02
2022-10-26T21:14:50.597Z,141.05
2022-10-26T21:16:51.967Z,139.32
2022-10-26T21:18:53.725Z,134.23
2022-10-26T21:20:58.994Z,143.45
2022-10-26T21:23:02.532Z,108.85
2022-10-26T21:25:04.354Z,95.60
2022-10-26T21:27:05.906Z,94.95
2022-10-26T21:29:09.469Z,102.43
2022-10-26T21:33:14.715Z,58.00
2022-10-26T21:35:18.323Z,60.65
2022-10-26T21:37:20.233Z,49.92
2022-10-26T21:39:22.138Z,47.95
2022-10-26T21:41:30.003Z,39.25
2022-10-26T21:43:37.289Z,33.95
2022-10-26T21:45:39.090Z,35.33
2022-10-26T21:47:41.823Z,32.15
2022-10-26T21:49:43.516Z,27.90
2022-10-26T21:51:46.102Z,30.58
2022-10-26T21:53:47.953Z,32.75
2022-10-26T21:55:49.607Z,41.58
2022-10-26T21:57:52.455Z,40.00
2022-10-26T21:59:53.909Z,47.65
2022-10-26T22:01:55.540Z,34.13
2022-10-26T22:03:57.045Z,31.40
2022-10-26T22:05:58.458Z,32.60
2022-10-26T22:07:59.861Z,28.20
2022-10-26T22:10:10.610Z,21.35
2022-10-26T22:12:12.621Z,23.20
2022-10-26T22:14:15.487Z,31.33
2022-10-26T22:16:20.238Z,34.40
2022-10-26T22:18:21.708Z,26.45
2022-10-26T22:20:23.169Z,24.60
2022-10-26T22:22:24.610Z,32.80
2022-10-26T22:24:26.027Z,39.80
2022-10-26T22:26:27.500Z,38.50
2022-10-26T22:28:32.028Z,31.65
2022-10-26T22:30:36.782Z,31.52
2022-10-26T22:32:38.240Z,36.75
2022-10-26T22:34:39.715Z,42.30
2022-10-26T22:36:41.323Z,23.85
2022-10-26T22:38:42.814Z,28.52
2022-10-26T22:40:44.222Z,17.65
2022-10-26T22:42:45.974Z,15.75
2022-10-26T22:44:47.677Z,30.88
2022-10-26T22:46:49.181Z,51.00
2022-10-26T22:48:57.525Z,38.45
2022-10-26T22:50:58.978Z,58.47
2022-10-26T22:53:00.381Z,58.65
2022-10-26T22:55:02.077Z,72.60
2022-10-26T22:57:03.533Z,55.72
2022-10-26T22:59:05.662Z,39.58
2022-10-26T23:01:11.579Z,47.97
2022-10-26T23:03:13.190Z,48.33
2022-10-26T23:05:14.630Z,52.45
2022-10-26T23:07:16.017Z,46.45
2022-10-26T23:09:17.573Z,28.42
2022-10-26T23:11:20.583Z,40.55
2022-10-26T23:13:22.163Z,41.47
2022-10-26T23:15:24.778Z,40.67
2022-10-26T23:17:26.378Z,34.10
2022-10-26T23:19:27.762Z,24.35
2022-10-26T23:21:29.762Z,15.88
2022-10-26T23:23:31.527Z,22.35
2022-10-26T23:25:33.117Z,23.77
2022-10-26T23:27:34.595Z,32.88
2022-10-26T23:29:36.073Z,27.90
2022-10-26T23:31:37.578Z,20.55
2022-10-26T23:33:38.982Z,30.42
2022-10-26T23:35:40.870Z,18.52
2022-10-26T23:37:42.245Z,21.63
2022-10-26T23:39:45.504Z,14.43
2022-10-26T23:41:49.203Z,18.75
2022-10-26T23:43:51.284Z,20.00
2022-10-26T23:45:53.246Z,14.75
2022-10-26T23:47:56.937Z,13.05
2022-10-26T23:52:01.397Z,10.48
2022-10-26T23:54:04.921Z,9.38
2022-10-26T23:56:08.026Z,13.25
2022-10-26T23:58:09.860Z,7.40
